sensor_id;sensor_type;location;lat;lon;timestamp;P1;durP1;ratioP1;P2;durP2;ratioP2
22780;SDS011;11557;50.884;4.322;2023-03-01T00:00:20;15.75;;;12.13;;
22780;SDS011;11557;50.884;4.322;2023-03-01T00:02:46;14.13;;;11.55;;
22780;SDS011;11557;50.884;4.322;2023-03-01T00:05:12;14.00;;;11.20;;
22780;SDS011;11557;50.884;4.322;2023-03-01T00:07:37;14.23;;;11.38;;
22780;SDS011;11557;50.884;4.322;2023-03-01T00:10:03;12.98;;;11.57;;
22780;SDS011;11557;50.884;4.322;2023-03-01T00:12:29;15.35;;;10.90;;
22780;SDS011;11557;50.884;4.322;2023-03-01T00:14:59;15.40;;;11.18;;
22780;SDS011;11557;50.884;4.322;2023-03-01T00:17:25;14.57;;;11.60;;
22780;SDS011;11557;50.884;4.322;2023-03-01T00:19:52;16.75;;;12.25;;
22780;SDS011;11557;50.884;4.322;2023-03-01T00:22:18;13.77;;;11.10;;
22780;SDS011;11557;50.884;4.322;2023-03-01T00:24:43;13.80;;;11.10;;
22780;SDS011;11557;50.884;4.322;2023-03-01T00:27:09;14.35;;;10.80;;
22780;SDS011;11557;50.884;4.322;2023-03-01T00:29:35;15.80;;;10.55;;
22780;SDS011;11557;50.884;4.322;2023-03-01T00:32:01;14.23;;;10.98;;
22780;SDS011;11557;50.884;4.322;2023-03-01T00:34:26;14.68;;;10.43;;
22780;SDS011;11557;50.884;4.322;2023-03-01T00:36:52;12.95;;;11.02;;
22780;SDS011;11557;50.884;4.322;2023-03-01T00:39:17;14.50;;;10.70;;
22780;SDS011;11557;50.884;4.322;2023-03-01T00:41:43;15.82;;;11.65;;
22780;SDS011;11557;50.884;4.322;2023-03-01T00:44:09;13.38;;;11.18;;
22780;SDS011;11557;50.884;4.322;2023-03-01T00:46:35;13.90;;;10.15;;
22780;SDS011;11557;50.884;4.322;2023-03-01T00:49:01;11.82;;;9.75;;
22780;SDS011;11557;50.884;4.322;2023-03-01T00:51:29;16.10;;;9.68;;
22780;SDS011;11557;50.884;4.322;2023-03-01T00:53:58;12.77;;;10.10;;
22780;SDS011;11557;50.884;4.322;2023-03-01T00:56:25;14.50;;;9.75;;
22780;SDS011;11557;50.884;4.322;2023-03-01T00:58:52;14.13;;;9.63;;
22780;SDS011;11557;50.884;4.322;2023-03-01T01:01:21;11.85;;;9.93;;
22780;SDS011;11557;50.884;4.322;2023-03-01T01:06:16;15.70;;;10.15;;
22780;SDS011;11557;50.884;4.322;2023-03-01T01:08:47;12.93;;;10.45;;
22780;SDS011;11557;50.884;4.322;2023-03-01T01:11:13;14.00;;;10.68;;
22780;SDS011;11557;50.884;4.322;2023-03-01T01:13:40;12.60;;;9.73;;
22780;SDS011;11557;50.884;4.322;2023-03-01T01:16:06;11.77;;;9.68;;
22780;SDS011;11557;50.884;4.322;2023-03-01T01:18:33;15.32;;;10.48;;
22780;SDS011;11557;50.884;4.322;2023-03-01T01:21:03;14.07;;;9.95;;
22780;SDS011;11557;50.884;4.322;2023-03-01T01:23:36;11.95;;;9.60;;
22780;SDS011;11557;50.884;4.322;2023-03-01T01:26:04;14.05;;;10.55;;
22780;SDS011;11557;50.884;4.322;2023-03-01T01:28:34;11.70;;;10.15;;
22780;SDS011;11557;50.884;4.322;2023-03-01T01:31:00;12.40;;;9.20;;
22780;SDS011;11557;50.884;4.322;2023-03-01T01:33:26;14.85;;;10.88;;
22780;SDS011;11557;50.884;4.322;2023-03-01T01:35:52;13.00;;;10.13;;
22780;SDS011;11557;50.884;4.322;2023-03-01T01:38:18;13.13;;;10.80;;
22780;SDS011;11557;50.884;4.322;2023-03-01T01:40:44;12.50;;;9.90;;
22780;SDS011;11557;50.884;4.322;2023-03-01T01:43:15;15.35;;;10.50;;
22780;SDS011;11557;50.884;4.322;2023-03-01T01:45:48;11.77;;;9.90;;
22780;SDS011;11557;50.884;4.322;2023-03-01T01:48:16;13.77;;;10.05;;
22780;SDS011;11557;50.884;4.322;2023-03-01T01:53:23;13.77;;;10.43;;
22780;SDS011;11557;50.884;4.322;2023-03-01T01:55:54;15.20;;;10.27;;
22780;SDS011;11557;50.884;4.322;2023-03-01T01:58:22;14.05;;;10.13;;
22780;SDS011;11557;50.884;4.322;2023-03-01T02:00:51;13.40;;;10.05;;
22780;SDS011;11557;50.884;4.322;2023-03-01T02:03:22;11.88;;;10.30;;
22780;SDS011;11557;50.884;4.322;2023-03-01T02:06:07;13.52;;;10.20;;
22780;SDS011;11557;50.884;4.322;2023-03-01T02:08:41;14.40;;;10.10;;
22780;SDS011;11557;50.884;4.322;2023-03-01T02:11:09;13.57;;;10.57;;
22780;SDS011;11557;50.884;4.322;2023-03-01T02:13:35;12.75;;;9.55;;
22780;SDS011;11557;50.884;4.322;2023-03-01T02:16:05;13.38;;;10.63;;
22780;SDS011;11557;50.884;4.322;2023-03-01T02:18:34;12.95;;;9.38;;
22780;SDS011;11557;50.884;4.322;2023-03-01T02:23:43;14.65;;;10.02;;
22780;SDS011;11557;50.884;4.322;2023-03-01T02:28:59;13.38;;;10.25;;
22780;SDS011;11557;50.884;4.322;2023-03-01T02:31:25;16.45;;;10.30;;
22780;SDS011;11557;50.884;4.322;2023-03-01T02:34:06;14.48;;;9.80;;
22780;SDS011;11557;50.884;4.322;2023-03-01T02:36:36;12.32;;;9.93;;
22780;SDS011;11557;50.884;4.322;2023-03-01T02:39:06;13.93;;;10.00;;
22780;SDS011;11557;50.884;4.322;2023-03-01T02:44:07;10.95;;;9.57;;
22780;SDS011;11557;50.884;4.322;2023-03-01T02:46:34;11.95;;;9.80;;
22780;SDS011;11557;50.884;4.322;2023-03-01T02:49:18;11.18;;;9.98;;
22780;SDS011;11557;50.884;4.322;2023-03-01T02:54:42;15.73;;;10.77;;
22780;SDS011;11557;50.884;4.322;2023-03-01T02:57:14;14.10;;;10.07;;
22780;SDS011;11557;50.884;4.322;2023-03-01T02:59:40;14.88;;;10.20;;
22780;SDS011;11557;50.884;4.322;2023-03-01T03:02:29;15.05;;;10.48;;
22780;SDS011;11557;50.884;4.322;2023-03-01T03:07:36;12.48;;;10.05;;
22780;SDS011;11557;50.884;4.322;2023-03-01T03:10:05;14.07;;;10.32;;
22780;SDS011;11557;50.884;4.322;2023-03-01T03:12:34;15.07;;;10.68;;
22780;SDS011;11557;50.884;4.322;2023-03-01T03:14:59;13.95;;;10.60;;
22780;SDS011;11557;50.884;4.322;2023-03-01T03:17:25;13.85;;;10.13;;
22780;SDS011;11557;50.884;4.322;2023-03-01T03:19:51;16.10;;;11.35;;
22780;SDS011;11557;50.884;4.322;2023-03-01T03:22:16;13.70;;;10.77;;
22780;SDS011;11557;50.884;4.322;2023-03-01T03:24:42;14.93;;;10.68;;
22780;SDS011;11557;50.884;4.322;2023-03-01T03:27:08;14.40;;;11.10;;
22780;SDS011;11557;50.884;4.322;2023-03-01T03:29:33;14.10;;;11.25;;
22780;SDS011;11557;50.884;4.322;2023-03-01T03:31:59;16.00;;;11.15;;
22780;SDS011;11557;50.884;4.322;2023-03-01T03:34:25;15.73;;;11.73;;
22780;SDS011;11557;50.884;4.322;2023-03-01T03:36:54;14.38;;;10.50;;
22780;SDS011;11557;50.884;4.322;2023-03-01T03:39:24;15.13;;;11.65;;
22780;SDS011;11557;50.884;4.322;2023-03-01T03:41:51;13.30;;;10.95;;
22780;SDS011;11557;50.884;4.322;2023-03-01T03:44:18;15.00;;;11.57;;
22780;SDS011;11557;50.884;4.322;2023-03-01T03:46:43;13.45;;;11.65;;
22780;SDS011;11557;50.884;4.322;2023-03-01T03:49:09;17.77;;;12.23;;
22780;SDS011;11557;50.884;4.322;2023-03-01T03:51:35;19.15;;;12.13;;
22780;SDS011;11557;50.884;4.322;2023-03-01T03:54:00;18.17;;;11.88;;
22780;SDS011;11557;50.884;4.322;2023-03-01T03:56:26;16.77;;;11.60;;
22780;SDS011;11557;50.884;4.322;2023-03-01T03:58:52;17.05;;;12.18;;
22780;SDS011;11557;50.884;4.322;2023-03-01T04:01:18;18.63;;;12.18;;
22780;SDS011;11557;50.884;4.322;2023-03-01T04:03:43;19.00;;;12.27;;
22780;SDS011;11557;50.884;4.322;2023-03-01T04:06:11;19.83;;;11.13;;
22780;SDS011;11557;50.884;4.322;2023-03-01T04:08:38;15.15;;;12.18;;
22780;SDS011;11557;50.884;4.322;2023-03-01T04:11:04;14.40;;;11.57;;
22780;SDS011;11557;50.884;4.322;2023-03-01T04:13:49;15.98;;;11.20;;
22780;SDS011;11557;50.884;4.322;2023-03-01T04:16:16;16.20;;;11.80;;
22780;SDS011;11557;50.884;4.322;2023-03-01T04:18:42;14.55;;;11.75;;
22780;SDS011;11557;50.884;4.322;2023-03-01T04:21:09;15.73;;;11.95;;
22780;SDS011;11557;50.884;4.322;2023-03-01T04:23:36;16.70;;;11.63;;
22780;SDS011;11557;50.884;4.322;2023-03-01T04:26:02;16.38;;;11.77;;
22780;SDS011;11557;50.884;4.322;2023-03-01T04:28:32;12.38;;;10.90;;
22780;SDS011;11557;50.884;4.322;2023-03-01T04:31:01;16.52;;;11.57;;
22780;SDS011;11557;50.884;4.322;2023-03-01T04:33:37;14.85;;;11.60;;
22780;SDS011;11557;50.884;4.322;2023-03-01T04:36:14;16.92;;;12.23;;
22780;SDS011;11557;50.884;4.322;2023-03-01T04:38:41;16.20;;;11.45;;
22780;SDS011;11557;50.884;4.322;2023-03-01T04:41:08;18.70;;;11.00;;
22780;SDS011;11557;50.884;4.322;2023-03-01T04:43:35;13.77;;;10.38;;
22780;SDS011;11557;50.884;4.322;2023-03-01T04:46:02;15.82;;;12.05;;
22780;SDS011;11557;50.884;4.322;2023-03-01T04:48:34;13.95;;;11.00;;
22780;SDS011;11557;50.884;4.322;2023-03-01T04:51:00;15.25;;;12.10;;
22780;SDS011;11557;50.884;4.322;2023-03-01T04:53:26;15.23;;;11.07;;
22780;SDS011;11557;50.884;4.322;2023-03-01T04:55:54;15.73;;;11.70;;
22780;SDS011;11557;50.884;4.322;2023-03-01T04:58:21;13.48;;;11.02;;
22780;SDS011;11557;50.884;4.322;2023-03-01T05:00:50;15.85;;;11.20;;
22780;SDS011;11557;50.884;4.322;2023-03-01T05:03:17;17.23;;;11.57;;
22780;SDS011;11557;50.884;4.322;2023-03-01T05:05:43;15.05;;;11.15;;
22780;SDS011;11557;50.884;4.322;2023-03-01T05:08:11;13.90;;;11.10;;
22780;SDS011;11557;50.884;4.322;2023-03-01T05:10:48;18.60;;;11.30;;
22780;SDS011;11557;50.884;4.322;2023-03-01T05:13:14;12.45;;;11.13;;
22780;SDS011;11557;50.884;4.322;2023-03-01T05:15:46;18.40;;;11.82;;
22780;SDS011;11557;50.884;4.322;2023-03-01T05:18:13;14.23;;;11.65;;
22780;SDS011;11557;50.884;4.322;2023-03-01T05:20:39;14.60;;;11.05;;
22780;SDS011;11557;50.884;4.322;2023-03-01T05:23:05;19.40;;;10.93;;
22780;SDS011;11557;50.884;4.322;2023-03-01T05:25:33;16.83;;;11.27;;
22780;SDS011;11557;50.884;4.322;2023-03-01T05:28:00;16.95;;;11.63;;
22780;SDS011;11557;50.884;4.322;2023-03-01T05:30:29;17.27;;;10.85;;
22780;SDS011;11557;50.884;4.322;2023-03-01T05:32:58;16.10;;;10.88;;
22780;SDS011;11557;50.884;4.322;2023-03-01T05:35:24;12.68;;;10.85;;
22780;SDS011;11557;50.884;4.322;2023-03-01T05:37:50;17.30;;;11.38;;
22780;SDS011;11557;50.884;4.322;2023-03-01T05:40:17;21.65;;;11.23;;
22780;SDS011;11557;50.884;4.322;2023-03-01T05:42:45;13.38;;;11.80;;
22780;SDS011;11557;50.884;4.322;2023-03-01T05:45:16;18.40;;;12.02;;
22780;SDS011;11557;50.884;4.322;2023-03-01T05:47:43;15.27;;;10.98;;
22780;SDS011;11557;50.884;4.322;2023-03-01T05:50:17;13.60;;;11.27;;
22780;SDS011;11557;50.884;4.322;2023-03-01T05:52:47;12.65;;;11.20;;
22780;SDS011;11557;50.884;4.322;2023-03-01T05:55:14;13.55;;;10.80;;
22780;SDS011;11557;50.884;4.322;2023-03-01T05:57:41;15.40;;;10.77;;
22780;SDS011;11557;50.884;4.322;2023-03-01T06:00:07;14.40;;;11.18;;
22780;SDS011;11557;50.884;4.322;2023-03-01T06:02:35;13.55;;;11.25;;
22780;SDS011;11557;50.884;4.322;2023-03-01T06:05:01;13.50;;;11.00;;
22780;SDS011;11557;50.884;4.322;2023-03-01T06:07:27;18.33;;;11.30;;
22780;SDS011;11557;50.884;4.322;2023-03-01T06:09:53;16.95;;;11.02;;
22780;SDS011;11557;50.884;4.322;2023-03-01T06:12:18;16.42;;;11.30;;
22780;SDS011;11557;50.884;4.322;2023-03-01T06:14:45;15.73;;;11.15;;
22780;SDS011;11557;50.884;4.322;2023-03-01T06:17:12;17.27;;;12.02;;
22780;SDS011;11557;50.884;4.322;2023-03-01T06:19:38;15.95;;;11.40;;
22780;SDS011;11557;50.884;4.322;2023-03-01T06:22:03;15.07;;;11.40;;
22780;SDS011;11557;50.884;4.322;2023-03-01T06:24:29;16.60;;;11.55;;
22780;SDS011;11557;50.884;4.322;2023-03-01T06:26:55;14.70;;;11.07;;
22780;SDS011;11557;50.884;4.322;2023-03-01T06:29:20;17.38;;;11.55;;
22780;SDS011;11557;50.884;4.322;2023-03-01T06:31:47;13.70;;;10.57;;
22780;SDS011;11557;50.884;4.322;2023-03-01T06:34:16;13.55;;;10.35;;
22780;SDS011;11557;50.884;4.322;2023-03-01T06:36:41;13.85;;;10.68;;
22780;SDS011;11557;50.884;4.322;2023-03-01T06:39:07;16.77;;;11.60;;
22780;SDS011;11557;50.884;4.322;2023-03-01T06:41:33;14.13;;;11.40;;
22780;SDS011;11557;50.884;4.322;2023-03-01T06:43:59;17.30;;;11.38;;
22780;SDS011;11557;50.884;4.322;2023-03-01T06:46:25;15.23;;;11.40;;
22780;SDS011;11557;50.884;4.322;2023-03-01T06:48:50;18.60;;;11.82;;
22780;SDS011;11557;50.884;4.322;2023-03-01T06:51:16;14.75;;;10.98;;
22780;SDS011;11557;50.884;4.322;2023-03-01T06:53:42;16.13;;;11.38;;
22780;SDS011;11557;50.884;4.322;2023-03-01T06:56:07;19.30;;;11.82;;
22780;SDS011;11557;50.884;4.322;2023-03-01T06:58:33;15.80;;;11.13;;
22780;SDS011;11557;50.884;4.322;2023-03-01T07:00:59;16.38;;;12.00;;
22780;SDS011;11557;50.884;4.322;2023-03-01T07:03:25;16.05;;;11.45;;
22780;SDS011;11557;50.884;4.322;2023-03-01T07:05:51;18.95;;;11.70;;
22780;SDS011;11557;50.884;4.322;2023-03-01T07:08:17;20.55;;;11.50;;
22780;SDS011;11557;50.884;4.322;2023-03-01T07:10:43;15.77;;;11.38;;
22780;SDS011;11557;50.884;4.322;2023-03-01T07:13:09;20.20;;;11.95;;
22780;SDS011;11557;50.884;4.322;2023-03-01T07:15:36;21.50;;;11.88;;
22780;SDS011;11557;50.884;4.322;2023-03-01T07:18:01;16.25;;;11.40;;
22780;SDS011;11557;50.884;4.322;2023-03-01T07:20:27;27.25;;;12.98;;
22780;SDS011;11557;50.884;4.322;2023-03-01T07:22:53;22.30;;;11.85;;
22780;SDS011;11557;50.884;4.322;2023-03-01T07:25:20;18.27;;;12.02;;
22780;SDS011;11557;50.884;4.322;2023-03-01T07:27:49;18.45;;;12.20;;
22780;SDS011;11557;50.884;4.322;2023-03-01T07:30:16;18.10;;;11.73;;
22780;SDS011;11557;50.884;4.322;2023-03-01T07:32:42;17.40;;;11.90;;
22780;SDS011;11557;50.884;4.322;2023-03-01T07:35:08;19.13;;;11.98;;
22780;SDS011;11557;50.884;4.322;2023-03-01T07:37:34;16.85;;;11.70;;
22780;SDS011;11557;50.884;4.322;2023-03-01T07:39:59;18.17;;;12.55;;
22780;SDS011;11557;50.884;4.322;2023-03-01T07:42:25;19.05;;;12.25;;
22780;SDS011;11557;50.884;4.322;2023-03-01T07:44:51;15.63;;;11.50;;
22780;SDS011;11557;50.884;4.322;2023-03-01T07:47:17;17.17;;;12.23;;
22780;SDS011;11557;50.884;4.322;2023-03-01T07:49:42;19.10;;;12.63;;
22780;SDS011;11557;50.884;4.322;2023-03-01T07:52:11;17.08;;;12.57;;
22780;SDS011;11557;50.884;4.322;2023-03-01T07:54:37;22.65;;;12.68;;
22780;SDS011;11557;50.884;4.322;2023-03-01T07:57:03;16.95;;;12.57;;
22780;SDS011;11557;50.884;4.322;2023-03-01T07:59:29;16.35;;;12.00;;
22780;SDS011;11557;50.884;4.322;2023-03-01T08:01:55;18.33;;;12.18;;
22780;SDS011;11557;50.884;4.322;2023-03-01T08:04:21;23.10;;;12.55;;
22780;SDS011;11557;50.884;4.322;2023-03-01T08:06:49;21.02;;;12.45;;
22780;SDS011;11557;50.884;4.322;2023-03-01T08:09:15;22.27;;;12.40;;
22780;SDS011;11557;50.884;4.322;2023-03-01T08:11:41;18.30;;;13.15;;
22780;SDS011;11557;50.884;4.322;2023-03-01T08:14:07;16.05;;;12.32;;
22780;SDS011;11557;50.884;4.322;2023-03-01T08:16:32;19.73;;;13.98;;
22780;SDS011;11557;50.884;4.322;2023-03-01T08:19:03;22.58;;;13.15;;
22780;SDS011;11557;50.884;4.322;2023-03-01T08:21:33;17.33;;;12.10;;
22780;SDS011;11557;50.884;4.322;2023-03-01T08:24:00;16.75;;;12.68;;
22780;SDS011;11557;50.884;4.322;2023-03-01T08:26:29;20.65;;;13.15;;
22780;SDS011;11557;50.884;4.322;2023-03-01T08:28:55;21.38;;;12.73;;
22780;SDS011;11557;50.884;4.322;2023-03-01T08:34:04;18.60;;;12.43;;
22780;SDS011;11557;50.884;4.322;2023-03-01T08:36:35;18.02;;;12.20;;
22780;SDS011;11557;50.884;4.322;2023-03-01T08:39:03;19.05;;;12.25;;
22780;SDS011;11557;50.884;4.322;2023-03-01T08:41:29;18.88;;;12.30;;
22780;SDS011;11557;50.884;4.322;2023-03-01T08:43:55;16.05;;;12.18;;
22780;SDS011;11557;50.884;4.322;2023-03-01T08:46:32;19.23;;;12.73;;
22780;SDS011;11557;50.884;4.322;2023-03-01T08:49:10;17.40;;;12.60;;
22780;SDS011;11557;50.884;4.322;2023-03-01T08:51:38;17.55;;;12.35;;
22780;SDS011;11557;50.884;4.322;2023-03-01T08:54:04;17.20;;;12.30;;
22780;SDS011;11557;50.884;4.322;2023-03-01T08:56:36;17.55;;;11.98;;
22780;SDS011;11557;50.884;4.322;2023-03-01T08:59:02;14.02;;;12.07;;
22780;SDS011;11557;50.884;4.322;2023-03-01T09:01:28;15.85;;;11.65;;
22780;SDS011;11557;50.884;4.322;2023-03-01T09:03:54;18.25;;;12.27;;
22780;SDS011;11557;50.884;4.322;2023-03-01T09:06:20;17.90;;;12.05;;
22780;SDS011;11557;50.884;4.322;2023-03-01T09:08:47;19.05;;;12.32;;
22780;SDS011;11557;50.884;4.322;2023-03-01T09:11:15;15.82;;;12.02;;
22780;SDS011;11557;50.884;4.322;2023-03-01T09:13:44;17.05;;;12.40;;
22780;SDS011;11557;50.884;4.322;2023-03-01T09:16:10;17.40;;;13.15;;
22780;SDS011;11557;50.884;4.322;2023-03-01T09:18:37;16.42;;;10.80;;
22780;SDS011;11557;50.884;4.322;2023-03-01T09:21:06;13.88;;;9.80;;
22780;SDS011;11557;50.884;4.322;2023-03-01T09:23:38;15.23;;;10.05;;
22780;SDS011;11557;50.884;4.322;2023-03-01T09:26:07;12.48;;;9.10;;
22780;SDS011;11557;50.884;4.322;2023-03-01T09:28:35;16.65;;;10.00;;
22780;SDS011;11557;50.884;4.322;2023-03-01T09:31:01;10.55;;;9.27;;
22780;SDS011;11557;50.884;4.322;2023-03-01T09:33:28;11.40;;;9.23;;
22780;SDS011;11557;50.884;4.322;2023-03-01T09:38:27;9.68;;;8.65;;
22780;SDS011;11557;50.884;4.322;2023-03-01T09:40:54;11.18;;;8.95;;
22780;SDS011;11557;50.884;4.322;2023-03-01T09:46:04;9.90;;;8.90;;
22780;SDS011;11557;50.884;4.322;2023-03-01T09:48:41;10.43;;;8.77;;
22780;SDS011;11557;50.884;4.322;2023-03-01T09:51:12;12.27;;;8.88;;
22780;SDS011;11557;50.884;4.322;2023-03-01T09:53:43;10.52;;;9.23;;
22780;SDS011;11557;50.884;4.322;2023-03-01T09:56:23;13.43;;;9.23;;
22780;SDS011;11557;50.884;4.322;2023-03-01T09:58:58;13.98;;;9.98;;
22780;SDS011;11557;50.884;4.322;2023-03-01T10:07:05;10.73;;;9.25;;
22780;SDS011;11557;50.884;4.322;2023-03-01T10:09:39;13.57;;;9.35;;
22780;SDS011;11557;50.884;4.322;2023-03-01T10:12:17;10.35;;;9.35;;
22780;SDS011;11557;50.884;4.322;2023-03-01T10:22:46;10.33;;;8.57;;
22780;SDS011;11557;50.884;4.322;2023-03-01T10:25:16;12.48;;;10.20;;
22780;SDS011;11557;50.884;4.322;2023-03-01T10:27:52;13.75;;;9.88;;
22780;SDS011;11557;50.884;4.322;2023-03-01T10:30:29;12.02;;;9.25;;
22780;SDS011;11557;50.884;4.322;2023-03-01T10:33:01;12.15;;;9.57;;
22780;SDS011;11557;50.884;4.322;2023-03-01T10:35:29;12.65;;;9.43;;
22780;SDS011;11557;50.884;4.322;2023-03-01T10:37:58;11.98;;;9.77;;
22780;SDS011;11557;50.884;4.322;2023-03-01T10:40:28;15.35;;;11.68;;
22780;SDS011;11557;50.884;4.322;2023-03-01T10:42:54;11.35;;;8.88;;
22780;SDS011;11557;50.884;4.322;2023-03-01T10:51:04;14.30;;;9.10;;
22780;SDS011;11557;50.884;4.322;2023-03-01T10:53:33;14.40;;;9.70;;
22780;SDS011;11557;50.884;4.322;2023-03-01T10:58:32;12.38;;;9.43;;
22780;SDS011;11557;50.884;4.322;2023-03-01T11:01:03;10.10;;;8.60;;
22780;SDS011;11557;50.884;4.322;2023-03-01T11:04:03;14.90;;;9.40;;
22780;SDS011;11557;50.884;4.322;2023-03-01T11:06:37;11.75;;;9.27;;
22780;SDS011;11557;50.884;4.322;2023-03-01T11:09:17;14.23;;;8.90;;
22780;SDS011;11557;50.884;4.322;2023-03-01T11:11:52;13.80;;;10.33;;
22780;SDS011;11557;50.884;4.322;2023-03-01T11:14:26;10.63;;;8.95;;
22780;SDS011;11557;50.884;4.322;2023-03-01T11:17:00;12.35;;;9.63;;
22780;SDS011;11557;50.884;4.322;2023-03-01T11:19:31;12.73;;;9.82;;
22780;SDS011;11557;50.884;4.322;2023-03-01T11:24:30;16.15;;;11.93;;
22780;SDS011;11557;50.884;4.322;2023-03-01T11:27:04;15.38;;;10.07;;
22780;SDS011;11557;50.884;4.322;2023-03-01T11:29:44;13.40;;;9.90;;
22780;SDS011;11557;50.884;4.322;2023-03-01T11:32:17;16.90;;;10.27;;
22780;SDS011;11557;50.884;4.322;2023-03-01T11:35:01;14.13;;;9.82;;
22780;SDS011;11557;50.884;4.322;2023-03-01T11:42:55;13.05;;;9.45;;
22780;SDS011;11557;50.884;4.322;2023-03-01T11:45:46;12.48;;;9.73;;
22780;SDS011;11557;50.884;4.322;2023-03-01T11:51:14;12.63;;;10.00;;
22780;SDS011;11557;50.884;4.322;2023-03-01T11:53:56;13.05;;;10.55;;
22780;SDS011;11557;50.884;4.322;2023-03-01T12:04:47;11.20;;;9.38;;
22780;SDS011;11557;50.884;4.322;2023-03-01T12:07:28;14.20;;;9.80;;
22780;SDS011;11557;50.884;4.322;2023-03-01T12:18:21;13.75;;;9.75;;
22780;SDS011;11557;50.884;4.322;2023-03-01T12:24:01;14.05;;;9.27;;
22780;SDS011;11557;50.884;4.322;2023-03-01T12:26:36;11.77;;;9.07;;
22780;SDS011;11557;50.884;4.322;2023-03-01T12:40:21;14.65;;;9.50;;
22780;SDS011;11557;50.884;4.322;2023-03-01T12:46:00;12.75;;;9.18;;
22780;SDS011;11557;50.884;4.322;2023-03-01T12:48:38;14.48;;;9.55;;
22780;SDS011;11557;50.884;4.322;2023-03-01T12:51:07;16.63;;;9.45;;
22780;SDS011;11557;50.884;4.322;2023-03-01T12:53:46;11.40;;;9.20;;
22780;SDS011;11557;50.884;4.322;2023-03-01T12:56:15;11.43;;;9.38;;
22780;SDS011;11557;50.884;4.322;2023-03-01T13:04:16;10.43;;;8.45;;
22780;SDS011;11557;50.884;4.322;2023-03-01T13:06:55;13.73;;;9.20;;
22780;SDS011;11557;50.884;4.322;2023-03-01T13:09:44;12.13;;;9.57;;
22780;SDS011;11557;50.884;4.322;2023-03-01T13:20:20;12.32;;;9.63;;
22780;SDS011;11557;50.884;4.322;2023-03-01T13:22:47;12.68;;;9.38;;
22780;SDS011;11557;50.884;4.322;2023-03-01T13:25:25;11.02;;;9.20;;
22780;SDS011;11557;50.884;4.322;2023-03-01T13:27:51;12.50;;;9.52;;
22780;SDS011;11557;50.884;4.322;2023-03-01T13:31:00;17.02;;;9.77;;
22780;SDS011;11557;50.884;4.322;2023-03-01T13:35:54;10.63;;;9.48;;
22780;SDS011;11557;50.884;4.322;2023-03-01T13:44:20;12.07;;;8.90;;
22780;SDS011;11557;50.884;4.322;2023-03-01T13:46:56;13.90;;;10.60;;
22780;SDS011;11557;50.884;4.322;2023-03-01T13:57:39;12.77;;;8.98;;
22780;SDS011;11557;50.884;4.322;2023-03-01T14:02:59;12.02;;;9.77;;
22780;SDS011;11557;50.884;4.322;2023-03-01T14:05:40;15.05;;;9.68;;
22780;SDS011;11557;50.884;4.322;2023-03-01T14:08:19;13.05;;;10.02;;
22780;SDS011;11557;50.884;4.322;2023-03-01T14:19:09;13.68;;;9.70;;
22780;SDS011;11557;50.884;4.322;2023-03-01T14:22:26;12.23;;;9.27;;
22780;SDS011;11557;50.884;4.322;2023-03-01T14:24:53;11.57;;;9.43;;
22780;SDS011;11557;50.884;4.322;2023-03-01T14:27:19;12.75;;;8.70;;
22780;SDS011;11557;50.884;4.322;2023-03-01T14:29:56;14.27;;;10.30;;
22780;SDS011;11557;50.884;4.322;2023-03-01T14:32:28;12.60;;;9.10;;
22780;SDS011;11557;50.884;4.322;2023-03-01T14:34:55;14.18;;;9.30;;
22780;SDS011;11557;50.884;4.322;2023-03-01T14:37:26;10.35;;;8.63;;
22780;SDS011;11557;50.884;4.322;2023-03-01T14:39:56;11.60;;;9.30;;
22780;SDS011;11557;50.884;4.322;2023-03-01T14:42:25;12.15;;;9.38;;
22780;SDS011;11557;50.884;4.322;2023-03-01T14:44:54;13.02;;;9.82;;
22780;SDS011;11557;50.884;4.322;2023-03-01T14:47:34;13.20;;;9.57;;
22780;SDS011;11557;50.884;4.322;2023-03-01T14:50:40;15.07;;;10.43;;
22780;SDS011;11557;50.884;4.322;2023-03-01T14:53:00;13.00;;;9.73;;
22780;SDS011;11557;50.884;4.322;2023-03-01T14:58:05;11.43;;;9.95;;
22780;SDS011;11557;50.884;4.322;2023-03-01T15:00:36;11.75;;;9.60;;
22780;SDS011;11557;50.884;4.322;2023-03-01T15:03:13;12.40;;;9.93;;
22780;SDS011;11557;50.884;4.322;2023-03-01T15:05:45;13.40;;;10.23;;
22780;SDS011;11557;50.884;4.322;2023-03-01T15:08:19;11.90;;;9.80;;
22780;SDS011;11557;50.884;4.322;2023-03-01T15:10:58;17.08;;;10.27;;
22780;SDS011;11557;50.884;4.322;2023-03-01T15:13:25;15.07;;;9.75;;
22780;SDS011;11557;50.884;4.322;2023-03-01T15:15:53;14.75;;;9.80;;
22780;SDS011;11557;50.884;4.322;2023-03-01T15:18:28;11.27;;;9.52;;
22780;SDS011;11557;50.884;4.322;2023-03-01T15:20:55;13.68;;;9.27;;
22780;SDS011;11557;50.884;4.322;2023-03-01T15:23:30;17.98;;;10.43;;
22780;SDS011;11557;50.884;4.322;2023-03-01T15:25:56;14.82;;;10.23;;
22780;SDS011;11557;50.884;4.322;2023-03-01T15:28:26;18.45;;;10.07;;
22780;SDS011;11557;50.884;4.322;2023-03-01T15:31:11;14.23;;;10.10;;
22780;SDS011;11557;50.884;4.322;2023-03-01T15:33:46;12.88;;;10.13;;
22780;SDS011;11557;50.884;4.322;2023-03-01T15:42:05;14.48;;;10.90;;
22780;SDS011;11557;50.884;4.322;2023-03-01T15:44:38;13.40;;;9.77;;
22780;SDS011;11557;50.884;4.322;2023-03-01T15:47:20;14.35;;;10.13;;
22780;SDS011;11557;50.884;4.322;2023-03-01T15:49:57;15.52;;;10.70;;
22780;SDS011;11557;50.884;4.322;2023-03-01T15:52:26;17.13;;;10.30;;
22780;SDS011;11557;50.884;4.322;2023-03-01T15:54:58;13.48;;;10.18;;
22780;SDS011;11557;50.884;4.322;2023-03-01T15:57:26;15.43;;;10.30;;
22780;SDS011;11557;50.884;4.322;2023-03-01T15:59:52;13.02;;;10.05;;
22780;SDS011;11557;50.884;4.322;2023-03-01T16:02:17;13.63;;;10.15;;
22780;SDS011;11557;50.884;4.322;2023-03-01T16:04:45;13.73;;;10.20;;
22780;SDS011;11557;50.884;4.322;2023-03-01T16:07:11;14.70;;;10.70;;
22780;SDS011;11557;50.884;4.322;2023-03-01T16:09:37;15.48;;;10.00;;
22780;SDS011;11557;50.884;4.322;2023-03-01T16:12:03;15.73;;;10.65;;
22780;SDS011;11557;50.884;4.322;2023-03-01T16:14:29;13.27;;;10.82;;
22780;SDS011;11557;50.884;4.322;2023-03-01T16:16:54;14.70;;;10.90;;
22780;SDS011;11557;50.884;4.322;2023-03-01T16:19:20;14.35;;;10.52;;
22780;SDS011;11557;50.884;4.322;2023-03-01T16:21:46;13.70;;;10.27;;
22780;SDS011;11557;50.884;4.322;2023-03-01T16:24:13;14.43;;;9.98;;
22780;SDS011;11557;50.884;4.322;2023-03-01T16:26:39;18.13;;;10.45;;
22780;SDS011;11557;50.884;4.322;2023-03-01T16:29:05;25.77;;;10.30;;
22780;SDS011;11557;50.884;4.322;2023-03-01T16:31:31;11.07;;;9.20;;
22780;SDS011;11557;50.884;4.322;2023-03-01T16:33:57;14.30;;;10.32;;
22780;SDS011;11557;50.884;4.322;2023-03-01T16:36:25;13.10;;;9.55;;
22780;SDS011;11557;50.884;4.322;2023-03-01T16:38:53;10.95;;;9.00;;
22780;SDS011;11557;50.884;4.322;2023-03-01T16:41:21;15.05;;;8.60;;
22780;SDS011;11557;50.884;4.322;2023-03-01T16:43:47;11.90;;;9.30;;
22780;SDS011;11557;50.884;4.322;2023-03-01T16:46:17;12.02;;;8.90;;
22780;SDS011;11557;50.884;4.322;2023-03-01T16:48:44;16.88;;;9.50;;
22780;SDS011;11557;50.884;4.322;2023-03-01T16:51:10;19.63;;;9.27;;
22780;SDS011;11557;50.884;4.322;2023-03-01T16:53:37;19.05;;;10.55;;
22780;SDS011;11557;50.884;4.322;2023-03-01T16:56:04;19.92;;;9.63;;
22780;SDS011;11557;50.884;4.322;2023-03-01T16:58:31;15.13;;;11.00;;
22780;SDS011;11557;50.884;4.322;2023-03-01T17:01:02;17.35;;;10.43;;